Time;durP1;ratioP1;P1;durP2;ratioP2;P2;SDS_P1;SDS_P2;PMS_P1;PMS_P2;Temp;Humidity;BMP_temperature;BMP_pressure;BME280_temperature;BME280_humidity;BME280_pressure;Samples;Min_cycle;Max_cycle;Signal;HPM_P1;HPM_P2
2021/04/13 00:01:12;;;;;;;;;;;2.70;92.10;;;;;;5060294;28;20051;-80
2021/04/13 00:03:42;;;;;;;3.13;0.40;;;2.80;92.10;;;;;;5057821;28;19913;-79
2021/04/13 00:06:11;;;;;;;4.60;0.50;;;2.90;92.00;;;;;;5072320;28;20040;-80
2021/04/13 00:08:39;;;;;;;5.23;0.43;;;2.90;92.20;;;;;;5049211;28;20032;-81
2021/04/13 00:11:11;;;;;;;3.07;0.47;;;3.00;92.00;;;;;;5045289;28;20639;-81
2021/04/13 00:13:42;;;;;;;2.65;0.50;;;3.00;92.10;;;;;;5069943;28;20055;-80
2021/04/13 00:16:29;;;;;;;3.57;0.30;;;3.00;92.20;;;;;;5053667;28;20036;-80
2021/04/13 00:18:57;;;;;;;3.93;0.50;;;2.90;92.30;;;;;;5063714;28;20458;-81
2021/04/13 00:21:34;;;;;;;4.17;0.47;;;3.00;92.30;;;;;;5046422;28;20039;-80
2021/04/13 00:24:06;;;;;;;5.70;0.70;;;3.00;92.40;;;;;;5057632;28;20043;-81
2021/04/13 00:26:33;;;;;;;5.87;0.93;;;3.00;92.30;;;;;;5064726;28;20052;-80
2021/04/13 00:29:07;;;;;;;1.33;0.37;;;3.10;92.40;;;;;;5059506;28;20040;-81
2021/04/13 00:31:45;;;;;;;6.00;0.50;;;3.20;92.40;;;;;;5056491;28;20047;-80
2021/04/13 00:37:29;;;;;;;4.93;0.40;;;3.30;92.30;;;;;;5076650;28;20067;-81
2021/04/13 00:40:12;;;;;;;6.77;0.50;;;3.30;92.30;;;;;;5059834;28;20115;-80
2021/04/13 00:42:40;;;;;;;6.70;0.60;;;3.30;92.30;;;;;;5082664;28;20040;-81
2021/04/13 00:45:18;;;;;;;5.77;0.50;;;3.30;92.30;;;;;;5044565;28;20055;-80
2021/04/13 00:47:47;;;;;;;3.27;0.30;;;3.20;92.30;;;;;;5063882;28;20032;-81
2021/04/13 00:50:22;;;;;;;5.63;0.50;;;3.20;92.40;;;;;;5078004;28;20043;-81
2021/04/13 00:52:56;;;;;;;5.90;0.70;;;3.10;92.50;;;;;;5077858;28;20044;-80
2021/04/13 00:55:35;;;;;;;6.17;0.50;;;3.10;92.50;;;;;;5061052;28;20070;-82
2021/04/13 00:58:48;;;;;;;8.83;0.50;;;3.20;92.60;;;;;;5078441;28;20040;-80
2021/04/13 01:01:22;;;;;;;3.33;0.50;;;3.20;92.60;;;;;;5044210;28;20048;-80
2021/04/13 01:04:00;;;;;;;7.80;0.90;;;3.10;92.60;;;;;;5065049;28;20039;-80
2021/04/13 01:06:30;;;;;;;5.23;0.47;;;3.10;92.60;;;;;;5081150;28;20036;-83
2021/04/13 01:09:11;;;;;;;5.97;0.50;;;3.00;92.70;;;;;;5083360;28;20605;-80
2021/04/13 01:11:45;;;;;;;5.07;0.90;;;3.00;92.80;;;;;;5044554;28;20052;-82
2021/04/13 01:14:13;;;;;;;4.70;0.40;;;3.00;92.80;;;;;;5046686;28;20043;-81
2021/04/13 01:16:51;;;;;;;4.40;0.40;;;3.00;92.90;;;;;;5060958;28;20055;-81
2021/04/13 01:19:30;;;;;;;4.87;0.60;;;3.00;92.80;;;;;;5055765;28;20033;-81
2021/04/13 01:22:22;;;;;;;2.90;0.30;;;2.90;92.80;;;;;;5072762;28;20040;-81
2021/04/13 01:24:52;;;;;;;5.43;0.40;;;3.00;92.90;;;;;;5042793;28;20036;-80
2021/04/13 01:27:21;;;;;;;4.03;0.47;;;3.00;92.90;;;;;;5041102;28;20067;-81
2021/04/13 01:29:51;;;;;;;2.30;0.43;;;2.90;92.90;;;;;;5048713;28;20055;-81
2021/04/13 01:32:19;;;;;;;5.93;0.60;;;2.90;93.00;;;;;;5061066;28;20051;-81
2021/04/13 01:35:01;;;;;;;2.70;0.43;;;2.80;93.00;;;;;;5051706;28;20485;-81
2021/04/13 01:37:51;;;;;;;4.83;0.67;;;2.80;93.00;;;;;;5074597;28;20060;-81
2021/04/13 01:43:13;;;;;;;3.30;0.47;;;2.70;93.20;;;;;;5062878;28;20067;-81
2021/04/13 01:45:41;;;;;;;7.30;0.70;;;2.70;93.40;;;;;;5059277;28;20051;-81
2021/04/13 01:48:12;;;;;;;7.63;1.13;;;2.70;93.10;;;;;;5059269;28;20048;-81
2021/04/13 01:50:42;;;;;;;7.30;0.60;;;2.70;93.20;;;;;;5062179;28;20028;-81
2021/04/13 01:53:18;;;;;;;3.97;0.40;;;2.70;93.20;;;;;;5076345;28;20044;-82
2021/04/13 01:55:58;;;;;;;2.13;0.60;;;2.60;93.50;;;;;;5057259;28;20044;-80
2021/04/13 01:58:39;;;;;;;7.53;0.60;;;2.60;93.30;;;;;;5048580;28;20040;-81
2021/04/13 02:01:10;;;;;;;3.63;0.57;;;2.50;93.30;;;;;;5065752;28;20044;-81
2021/04/13 02:03:44;;;;;;;3.57;0.40;;;2.50;93.40;;;;;;5059419;28;20045;-81
2021/04/13 02:06:23;;;;;;;3.37;0.50;;;2.40;93.40;;;;;;5056960;28;20032;-81
2021/04/13 02:08:54;;;;;;;2.97;0.50;;;2.30;93.50;;;;;;5061122;28;20036;-82
2021/04/13 02:11:33;;;;;;;2.60;0.40;;;2.30;93.50;;;;;;5063638;28;20047;-81
2021/04/13 02:14:29;;;;;;;4.23;0.73;;;2.20;93.60;;;;;;5041922;28;20405;-81
2021/04/13 02:17:12;;;;;;;2.27;0.40;;;2.20;93.60;;;;;;5063199;28;20060;-81
2021/04/13 02:19:46;;;;;;;3.83;0.40;;;2.10;93.80;;;;;;5062063;28;20059;-81
2021/04/13 02:22:18;;;;;;;2.67;0.57;;;2.00;93.60;;;;;;5055675;28;20036;-80
2021/04/13 02:24:46;;;;;;;6.30;0.70;;;2.00;93.60;;;;;;5057372;28;20124;-81
2021/04/13 02:27:15;;;;;;;2.73;0.40;;;2.00;93.60;;;;;;5047114;28;20042;-81
2021/04/13 02:29:48;;;;;;;2.63;0.37;;;1.90;93.70;;;;;;5045746;28;20035;-81
2021/04/13 02:32:20;;;;;;;4.37;0.43;;;1.90;93.70;;;;;;5045219;28;20485;-81
2021/04/13 02:35:06;;;;;;;2.00;0.40;;;1.80;93.70;;;;;;5062895;28;20146;-81
2021/04/13 02:37:35;;;;;;;4.10;0.50;;;1.80;93.80;;;;;;5060505;28;20044;-81
2021/04/13 02:40:53;;;;;;;3.43;0.47;;;1.70;93.80;;;;;;5081394;28;20403;-82
2021/04/13 02:43:45;;;;;;;7.53;0.60;;;1.70;93.90;;;;;;5041933;28;20043;-82
2021/04/13 02:46:22;;;;;;;3.87;0.40;;;1.70;94.00;;;;;;5041821;28;21161;-79
2021/04/13 02:49:01;;;;;;;4.40;0.60;;;1.60;94.00;;;;;;5063610;28;20036;-79
2021/04/13 02:51:31;;;;;;;5.20;0.50;;;1.70;94.00;;;;;;5047321;28;20568;-79
2021/04/13 02:54:18;;;;;;;5.17;0.53;;;1.60;93.90;;;;;;5043745;28;20047;-79
2021/04/13 02:56:48;;;;;;;4.73;0.63;;;1.60;94.00;;;;;;5058962;28;20032;-79
2021/04/13 02:59:21;;;;;;;3.83;0.43;;;1.60;94.00;;;;;;5055405;28;20039;-79
2021/04/13 03:02:07;;;;;;;5.03;0.60;;;1.60;94.10;;;;;;5077414;28;20044;-79
2021/04/13 03:04:44;;;;;;;5.97;0.60;;;1.60;94.30;;;;;;5063357;28;20451;-79
2021/04/13 03:07:23;;;;;;;6.87;0.90;;;1.70;94.50;;;;;;5075847;28;20047;-78
2021/04/13 03:10:03;;;;;;;9.43;0.50;;;1.80;94.50;;;;;;5040989;28;20036;-79
2021/04/13 03:12:31;;;;;;;7.57;0.50;;;1.80;94.50;;;;;;5079108;28;20048;-78
2021/04/13 03:14:58;;;;;;;4.93;0.63;;;1.90;94.50;;;;;;5062107;28;20040;-78
2021/04/13 03:17:31;;;;;;;6.17;0.53;;;2.00;94.50;;;;;;5043755;28;20047;-79
2021/04/13 03:20:26;;;;;;;5.83;0.60;;;2.00;94.50;;;;;;5045826;28;20052;-79
2021/04/13 03:23:00;;;;;;;7.43;0.50;;;2.10;94.50;;;;;;5075829;28;20051;-79
2021/04/13 03:25:33;;;;;;;6.67;0.80;;;2.20;94.50;;;;;;5043782;28;20032;-79
2021/04/13 03:28:01;;;;;;;8.80;0.75;;;2.30;94.50;;;;;;5060201;28;20043;-79
2021/04/13 03:30:35;;;;;;;7.40;0.80;;;2.30;94.70;;;;;;5043348;28;20040;-81
2021/04/13 03:33:29;;;;;;;6.60;0.67;;;2.40;94.90;;;;;;5042741;28;20035;-81
2021/04/13 03:36:09;;;;;;;8.07;1.10;;;2.40;94.60;;;;;;5047803;28;20052;-81
2021/04/13 03:38:38;;;;;;;3.30;0.60;;;2.40;94.50;;;;;;5076297;28;20051;-81
2021/04/13 03:41:12;;;;;;;7.03;1.10;;;2.50;94.60;;;;;;5062814;28;20044;-81
2021/04/13 03:43:39;;;;;;;5.97;1.33;;;2.50;94.60;;;;;;5058315;28;20036;-81
2021/04/13 03:46:09;;;;;;;8.90;0.93;;;2.60;94.60;;;;;;5042363;28;20044;-81
2021/04/13 03:48:38;;;;;;;7.83;1.27;;;2.60;94.60;;;;;;5061857;28;20046;-82
2021/04/13 03:51:12;;;;;;;7.07;0.60;;;2.60;94.50;;;;;;5043769;28;20044;-81
2021/04/13 03:53:46;;;;;;;8.37;1.20;;;2.60;94.50;;;;;;5041471;28;20483;-82
2021/04/13 03:56:18;;;;;;;8.27;0.90;;;2.60;94.40;;;;;;5060281;28;20044;-81
2021/04/13 03:58:52;;;;;;;5.93;1.03;;;2.60;94.40;;;;;;5045928;28;20024;-82
2021/04/13 04:01:23;;;;;;;9.53;0.80;;;2.50;94.40;;;;;;5064968;28;20048;-81
2021/04/13 04:04:20;;;;;;;9.83;1.40;;;2.50;94.40;;;;;;5080820;28;20048;-82
2021/04/13 04:07:16;;;;;;;10.37;1.13;;;2.40;94.50;;;;;;5059804;28;20056;-81
2021/04/13 04:09:38;;;;;;;5.50;0.60;;;2.40;94.50;;;;;;5083533;28;20059;-81
2021/04/13 04:12:20;;;;;;;3.90;0.60;;;2.40;94.50;;;;;;5051572;28;20533;-81
2021/04/13 04:15:07;;;;;;;3.90;0.70;;;2.30;94.50;;;;;;5080834;28;20055;-82
2021/04/13 04:17:37;;;;;;;11.60;0.90;;;2.30;94.50;;;;;;5045585;28;20813;-79
2021/04/13 04:20:06;;;;;;;7.00;0.93;;;2.30;94.50;;;;;;5064944;28;20862;-79
2021/04/13 04:22:35;;;;;;;13.47;1.70;;;2.20;94.50;;;;;;5063822;28;20384;-79
2021/04/13 04:25:20;;;;;;;11.43;1.20;;;2.20;94.60;;;;;;5063401;28;20604;-79
2021/04/13 04:27:53;;;;;;;5.73;1.10;;;2.10;94.60;;;;;;5048116;28;20040;-79
2021/04/13 04:30:27;;;;;;;4.37;0.87;;;2.10;94.70;;;;;;5088715;28;20048;-79
2021/04/13 04:32:56;;;;;;;9.30;1.00;;;2.10;94.70;;;;;;5065585;28;20040;-79
2021/04/13 04:35:44;;;;;;;9.27;1.50;;;2.00;94.70;;;;;;5044681;28;20043;-78
2021/04/13 04:38:32;;;;;;;6.43;0.90;;;2.00;94.70;;;;;;5047092;28;20036;-81
2021/04/13 04:41:07;;;;;;;8.17;1.00;;;1.90;94.70;;;;;;5069489;28;20040;-80
2021/04/13 04:43:56;;;;;;;10.10;1.50;;;1.90;94.70;;;;;;5056640;28;20044;-79
2021/04/13 04:46:38;;;;;;;5.13;1.27;;;1.90;94.80;;;;;;5061327;28;20036;-79
2021/04/13 04:49:07;;;;;;;7.15;1.63;;;1.90;94.70;;;;;;5068440;28;20035;-79
2021/04/13 04:51:36;;;;;;;6.70;1.13;;;1.90;94.70;;;;;;5050633;28;20402;-79
2021/04/13 04:54:04;;;;;;;6.53;1.00;;;1.80;94.70;;;;;;5063080;28;20047;-81
2021/04/13 04:56:30;;;;;;;3.77;0.70;;;1.80;94.70;;;;;;5054352;28;20398;-79
2021/04/13 04:58:59;;;;;;;4.77;1.43;;;1.80;94.70;;;;;;5055084;28;20048;-79
2021/04/13 05:01:26;;;;;;;8.10;1.27;;;1.80;94.70;;;;;;5065218;28;20062;-79
2021/04/13 05:03:53;;;;;;;4.67;0.67;;;1.80;94.80;;;;;;5065384;28;20039;-80
2021/04/13 05:06:20;;;;;;;11.63;1.50;;;1.80;94.90;;;;;;5064841;28;20040;-79
2021/04/13 05:08:47;;;;;;;6.87;0.90;;;1.80;94.80;;;;;;5051289;28;20343;-79
2021/04/13 05:11:15;;;;;;;7.37;0.80;;;1.80;95.10;;;;;;5064981;28;20048;-80
2021/04/13 05:13:42;;;;;;;9.27;1.27;;;1.80;94.80;;;;;;5045991;28;20069;-81
2021/04/13 05:16:09;;;;;;;7.23;0.90;;;1.80;94.80;;;;;;5065320;28;20079;-81
2021/04/13 05:18:42;;;;;;;5.20;0.60;;;1.80;94.70;;;;;;5046847;28;20039;-81
2021/04/13 05:21:09;;;;;;;7.53;0.93;;;1.90;94.80;;;;;;5063340;28;20082;-79
2021/04/13 05:23:44;;;;;;;4.73;0.83;;;1.90;94.70;;;;;;5075868;28;20047;-81
2021/04/13 05:26:11;;;;;;;4.63;0.83;;;1.90;94.80;;;;;;5049721;28;20070;-80
2021/04/13 05:28:38;;;;;;;7.40;1.30;;;2.00;94.80;;;;;;5030559;28;20047;-79
2021/04/13 05:31:05;;;;;;;8.27;1.13;;;2.10;94.70;;;;;;5031965;28;20037;-79
2021/04/13 05:33:32;;;;;;;5.87;1.00;;;2.20;94.60;;;;;;5064486;28;20032;-79
2021/04/13 05:36:01;;;;;;;5.60;0.90;;;2.30;94.60;;;;;;5048184;28;20048;-79
2021/04/13 05:38:38;;;;;;;5.23;0.83;;;2.40;94.70;;;;;;5061677;28;20052;-79
2021/04/13 05:41:07;;;;;;;7.17;1.20;;;2.50;94.40;;;;;;5046477;28;20036;-79
2021/04/13 05:43:37;;;;;;;7.40;1.00;;;2.50;94.40;;;;;;5064280;28;20036;-82
2021/04/13 05:46:05;;;;;;;7.63;1.00;;;2.70;94.40;;;;;;5061411;28;20094;-82
2021/04/13 05:48:32;;;;;;;10.50;1.17;;;2.80;94.30;;;;;;5058165;28;20052;-81
2021/04/13 05:50:59;;;;;;;7.50;0.70;;;2.90;94.30;;;;;;5031379;28;20040;-82
2021/04/13 05:53:26;;;;;;;11.60;0.90;;;3.00;94.40;;;;;;5046720;28;20036;-81
2021/04/13 05:55:54;;;;;;;11.03;0.90;;;3.10;94.10;;;;;;5059354;28;20036;-82
2021/04/13 05:58:25;;;;;;;5.73;0.63;;;3.30;94.00;;;;;;5058206;28;20405;-82
2021/04/13 06:00:55;;;;;;;9.97;0.93;;;3.40;93.80;;;;;;5046660;28;20043;-82
2021/04/13 06:03:24;;;;;;;5.63;0.70;;;3.60;93.70;;;;;;5084250;28;20040;-81
2021/04/13 06:05:55;;;;;;;9.17;1.27;;;3.80;93.50;;;;;;5046500;28;20395;-81
2021/04/13 06:08:22;;;;;;;9.30;0.83;;;3.90;93.20;;;;;;5060276;28;20041;-82
2021/04/13 06:10:49;;;;;;;9.10;0.87;;;4.20;93.10;;;;;;5048437;28;20590;-82
2021/04/13 06:13:17;;;;;;;5.77;0.63;;;4.30;92.80;;;;;;5014382;28;20044;-79
2021/04/13 06:15:44;;;;;;;10.00;1.20;;;4.50;92.50;;;;;;5024970;28;20040;-80
2021/04/13 06:18:13;;;;;;;9.30;1.43;;;4.60;92.30;;;;;;5027292;28;20036;-80
2021/04/13 06:20:40;;;;;;;5.07;0.90;;;4.80;92.20;;;;;;4994658;28;20040;-80
2021/04/13 06:23:06;;;;;;;7.60;1.00;;;4.90;91.90;;;;;;5013557;28;20514;-80
2021/04/13 06:25:33;;;;;;;6.80;0.67;;;5.10;91.50;;;;;;5012328;28;20045;-81
2021/04/13 06:28:00;;;;;;;11.03;1.40;;;5.20;91.30;;;;;;5010531;28;20695;-81
2021/04/13 06:30:28;;;;;;;9.30;0.77;;;5.30;91.10;;;;;;5042280;28;20158;-80
2021/04/13 06:32:57;;;;;;;7.10;0.90;;;5.40;90.80;;;;;;5034585;28;20488;-80
2021/04/13 06:35:26;;;;;;;9.20;0.90;;;5.50;90.70;;;;;;5040294;28;20048;-80
2021/04/13 06:37:57;;;;;;;11.23;1.13;;;5.70;90.60;;;;;;5039080;28;20063;-80
2021/04/13 06:40:49;;;;;;;5.57;1.07;;;5.80;90.20;;;;;;5013123;28;20033;-81
2021/04/13 06:43:33;;;;;;;13.93;0.73;;;5.90;90.00;;;;;;5013060;28;20435;-81
2021/04/13 06:46:02;;;;;;;7.17;0.70;;;6.10;89.60;;;;;;5027985;28;20785;-83
2021/04/13 06:48:49;;;;;;;7.93;0.83;;;6.20;89.00;;;;;;5011985;28;20041;-80
2021/04/13 06:51:46;;;;;;;7.37;0.60;;;6.30;88.80;;;;;;5020724;28;20040;-81
2021/04/13 06:54:55;;;;;;;9.73;1.47;;;6.50;87.80;;;;;;5010814;28;20052;-81
2021/04/13 06:57:52;;;;;;;9.93;1.03;;;6.70;87.00;;;;;;4936586;28;20043;-79
2021/04/13 07:00:44;;;;;;;7.30;0.73;;;6.80;86.30;;;;;;5046232;28;20047;-78
2021/04/13 07:03:43;;;;;;;9.52;0.98;;;6.90;85.40;;;;;;5015026;28;20028;-82
2021/04/13 07:06:15;;;;;;;5.35;0.80;;;6.90;84.90;;;;;;5021701;28;20451;-80
2021/04/13 07:08:58;;;;;;;11.73;0.93;;;7.00;84.80;;;;;;5013324;28;20108;-82
2021/04/13 07:11:40;;;;;;;9.38;1.00;;;7.10;84.60;;;;;;5038213;28;20060;-82
2021/04/13 07:14:25;;;;;;;11.00;0.70;;;7.20;84.60;;;;;;5009578;28;20044;-83
2021/04/13 07:17:37;;;;;;;11.77;0.90;;;7.40;84.10;;;;;;5027217;28;20037;-83
2021/04/13 07:20:48;;;;;;;7.47;0.60;;;7.40;83.40;;;;;;5029336;28;20398;-81
2021/04/13 07:23:30;;;;;;;8.90;0.90;;;7.60;83.20;;;;;;5027291;28;20043;-81
2021/04/13 07:26:12;;;;;;;7.63;1.05;;;7.70;82.30;;;;;;5009442;28;20784;-81
2021/04/13 07:28:52;;;;;;;10.90;1.02;;;7.70;81.80;;;;;;5006983;28;20032;-82
2021/04/13 07:31:27;;;;;;;6.10;0.90;;;7.80;81.60;;;;;;5024963;28;20589;-82
2021/04/13 07:33:53;;;;;;;10.63;1.00;;;7.80;81.40;;;;;;5010347;28;20048;-82
2021/04/13 07:36:31;;;;;;;13.60;1.67;;;7.90;81.20;;;;;;5006372;28;20486;-82
2021/04/13 07:38:59;;;;;;;8.82;0.70;;;8.00;80.50;;;;;;5030899;28;20048;-83
2021/04/13 07:41:43;;;;;;;7.32;0.60;;;8.00;80.30;;;;;;5028581;28;20037;-81
2021/04/13 07:44:49;;;;;;;7.57;0.90;;;8.10;80.20;;;;;;5027917;28;20037;-82
2021/04/13 07:47:20;;;;;;;7.53;0.88;;;8.20;80.00;;;;;;5047101;28;20043;-82
2021/04/13 07:49:46;;;;;;;4.90;0.50;;;8.30;79.90;;;;;;5030306;28;20052;-83
2021/04/13 07:52:27;;;;;;;8.43;0.82;;;8.40;79.00;;;;;;5019394;28;20036;-82
2021/04/13 07:55:01;;;;;;;6.43;0.47;;;8.50;78.60;;;;;;5015342;28;20040;-82
2021/04/13 07:57:41;;;;;;;5.15;0.30;;;8.60;78.60;;;;;;5045136;28;20051;-82
2021/04/13 08:00:26;;;;;;;8.70;0.60;;;8.60;77.30;;;;;;5048103;28;20048;-80
2021/04/13 08:03:27;;;;;;;3.90;0.40;;;8.70;76.00;;;;;;5037897;28;20032;-80
2021/04/13 08:05:57;;;;;;;6.40;0.45;;;8.80;75.60;;;;;;5041211;28;20864;-81
2021/04/13 08:08:38;;;;;;;4.95;0.45;;;8.90;74.50;;;;;;5030563;28;20036;-80
2021/04/13 08:11:19;;;;;;;10.40;0.50;;;8.90;73.60;;;;;;5030731;28;20044;-80
2021/04/13 08:13:52;;;;;;;4.75;0.60;;;9.10;72.80;;;;;;5061746;28;20048;-80
2021/04/13 08:16:35;;;;;;;1.75;0.30;;;9.20;72.60;;;;;;5057968;28;20043;-81
2021/04/13 08:19:11;;;;;;;2.35;0.30;;;9.30;71.80;;;;;;5044397;28;20039;-80
2021/04/13 08:21:37;;;;;;;7.05;0.50;;;9.40;70.10;;;;;;5078469;28;20047;-80
2021/04/13 08:24:04;;;;;;;3.97;0.55;;;9.40;70.30;;;;;;5063166;28;20044;-80
2021/04/13 08:26:34;;;;;;;3.78;0.40;;;9.60;70.20;;;;;;5064054;28;20028;-81
2021/04/13 08:29:06;;;;;;;4.15;0.40;;;9.70;70.00;;;;;;5065366;28;20036;-80
2021/04/13 08:35:38;;;;;;;3.10;0.40;;;10.00;67.50;;;;;;5054735;28;20040;-81
2021/04/13 08:38:39;;;;;;;4.40;0.30;;;10.10;67.00;;;;;;5061483;28;20042;-81
2021/04/13 08:41:23;;;;;;;5.80;0.35;;;10.20;65.60;;;;;;5081199;28;20043;-81
2021/04/13 08:44:12;;;;;;;4.82;0.30;;;10.20;66.60;;;;;;5079014;28;20044;-81
2021/04/13 08:46:51;;;;;;;5.63;0.60;;;10.40;65.70;;;;;;5059821;28;20032;-82
2021/04/13 08:49:26;;;;;;;5.72;0.40;;;10.30;64.20;;;;;;5063515;28;20044;-82
2021/04/13 08:52:27;;;;;;;2.65;0.30;;;10.30;64.60;;;;;;5064855;28;20039;-81
2021/04/13 08:55:15;;;;;;;6.93;0.45;;;10.20;64.20;;;;;;5067084;28;20391;-81
2021/04/13 08:57:46;;;;;;;2.72;0.30;;;10.30;63.10;;;;;;5069622;28;20054;-81
2021/04/13 09:00:53;;;;;;;4.80;0.40;;;10.20;63.10;;;;;;5065563;28;20040;-84
2021/04/13 09:03:23;;;;;;;4.68;0.68;;;10.40;62.80;;;;;;5022435;28;20045;-84
2021/04/13 09:06:12;;;;;;;4.70;0.40;;;10.50;62.40;;;;;;5055614;28;20048;-83
2021/04/13 09:08:51;;;;;;;3.58;0.30;;;10.50;61.90;;;;;;5079673;28;20055;-83
2021/04/13 09:11:25;;;;;;;4.00;0.30;;;10.40;61.50;;;;;;5062093;28;20055;-81
2021/04/13 09:14:05;;;;;;;3.35;0.50;;;10.30;61.90;;;;;;5074854;28;20395;-80
2021/04/13 09:17:08;;;;;;;5.68;0.40;;;10.30;61.00;;;;;;5062685;28;20047;-81
2021/04/13 09:19:43;;;;;;;4.22;0.40;;;10.40;61.10;;;;;;5065220;28;20049;-81
2021/04/13 09:22:27;;;;;;;5.13;0.30;;;10.30;60.60;;;;;;5040526;28;20688;-82
2021/04/13 09:25:33;;;;;;;2.55;0.25;;;10.50;60.30;;;;;;5048774;28;20036;-80
2021/04/13 09:28:13;;;;;;;4.47;0.40;;;10.70;58.80;;;;;;5053573;28;20105;-81
2021/04/13 09:30:43;;;;;;;3.20;0.50;;;10.90;56.40;;;;;;5080150;28;20040;-81
2021/04/13 09:33:12;;;;;;;2.45;0.30;;;11.00;57.10;;;;;;5063585;28;20030;-82
2021/04/13 09:36:27;;;;;;;2.83;0.30;;;11.20;57.40;;;;;;5065593;28;20512;-80
2021/04/13 09:39:21;;;;;;;2.92;0.20;;;11.50;56.70;;;;;;5044724;28;20510;-81
2021/04/13 09:41:53;;;;;;;2.55;0.20;;;11.70;56.50;;;;;;5049588;28;20527;-81
2021/04/13 09:44:45;;;;;;;3.70;0.20;;;11.80;56.90;;;;;;5059631;28;20040;-81
2021/04/13 09:47:49;;;;;;;5.03;0.45;;;12.00;57.00;;;;;;5077402;28;20039;-82
2021/04/13 09:50:36;;;;;;;4.50;0.50;;;12.10;55.70;;;;;;5076479;28;20052;-83
2021/04/13 09:53:05;;;;;;;3.95;0.90;;;12.00;55.50;;;;;;5049666;28;20035;-82
2021/04/13 09:55:45;;;;;;;4.50;0.40;;;11.60;54.90;;;;;;5060572;28;20040;-81
2021/04/13 09:58:12;;;;;;;2.75;0.32;;;11.40;53.70;;;;;;5044981;28;20477;-81
2021/04/13 10:00:47;;;;;;;3.65;0.43;;;11.40;54.00;;;;;;5063380;28;20027;-82
2021/04/13 10:03:52;;;;;;;7.80;0.40;;;11.50;53.50;;;;;;5052639;28;20036;-81
2021/04/13 10:06:27;;;;;;;3.03;0.30;;;11.80;53.70;;;;;;5068101;28;20051;-81
2021/04/13 10:09:03;;;;;;;4.55;0.32;;;12.20;53.60;;;;;;5077838;28;20071;-81
2021/04/13 10:11:54;;;;;;;3.30;0.40;;;12.40;52.60;;;;;;5050246;28;20242;-81
2021/04/13 10:14:36;;;;;;;2.17;0.22;;;12.20;50.80;;;;;;5019761;28;20041;-81
2021/04/13 10:17:08;;;;;;;2.15;0.30;;;12.00;51.90;;;;;;5015655;28;20036;-81
2021/04/13 10:20:15;;;;;;;2.65;0.38;;;12.10;51.70;;;;;;5011420;28;20047;-81
2021/04/13 10:23:09;;;;;;;3.88;0.40;;;12.30;51.50;;;;;;4989690;28;20042;-80
2021/04/13 10:25:56;;;;;;;3.80;0.40;;;12.60;51.00;;;;;;5037953;28;20103;-81
2021/04/13 10:28:35;;;;;;;2.38;0.50;;;12.70;49.70;;;;;;5021127;28;20380;-81
2021/04/13 10:31:46;;;;;;;2.45;0.30;;;12.50;48.50;;;;;;5013233;28;20041;-81
2021/04/13 10:34:58;;;;;;;2.38;0.30;;;12.50;48.90;;;;;;5004474;28;20379;-81
2021/04/13 10:38:10;;;;;;;1.35;0.30;;;12.90;49.30;;;;;;5006778;28;20775;-80
2021/04/13 10:41:28;;;;;;;5.25;0.68;;;13.50;48.00;;;;;;5016713;28;20506;-81
2021/04/13 10:44:28;;;;;;;2.63;0.30;;;13.70;46.70;;;;;;5008093;28;20407;-81
2021/04/13 10:47:33;;;;;;;3.58;0.20;;;13.30;46.40;;;;;;5055834;28;20057;-81
2021/04/13 10:50:37;;;;;;;2.97;0.40;;;12.90;45.70;;;;;;5020519;28;20041;-81
2021/04/13 10:53:28;;;;;;;3.78;0.28;;;13.00;45.00;;;;;;5041363;28;20044;-82
2021/04/13 10:56:22;;;;;;;1.23;0.30;;;13.50;45.00;;;;;;5006057;28;20091;-81
2021/04/13 10:59:33;;;;;;;2.35;0.38;;;13.90;43.80;;;;;;5007609;28;20033;-81
2021/04/13 11:02:11;;;;;;;2.33;0.40;;;13.70;43.50;;;;;;5022557;28;20403;-81
2021/04/13 11:05:02;;;;;;;3.35;0.32;;;13.40;44.30;;;;;;5011496;28;20052;-82
2021/04/13 11:07:56;;;;;;;4.32;0.40;;;13.20;44.30;;;;;;5025997;28;20033;-81
2021/04/13 11:11:05;;;;;;;2.53;0.40;;;13.50;44.20;;;;;;5041903;28;20074;-82
2021/04/13 11:14:01;;;;;;;2.80;0.40;;;14.40;43.30;;;;;;5008929;28;20051;-81
2021/04/13 11:17:05;;;;;;;1.38;0.30;;;15.20;41.40;;;;;;5038100;28;20024;-82
2021/04/13 11:19:58;;;;;;;2.45;0.50;;;15.60;41.00;;;;;;5009393;28;20046;-81
2021/04/13 11:23:28;;;;;;;7.68;0.50;;;15.80;39.90;;;;;;4996291;28;20041;-82
2021/04/13 11:25:57;;;;;;;2.30;0.40;;;15.80;40.30;;;;;;5034076;28;20059;-82
2021/04/13 11:28:41;;;;;;;3.45;0.30;;;16.20;39.70;;;;;;5028711;28;20049;-82
2021/04/13 11:31:26;;;;;;;2.15;0.38;;;16.80;39.50;;;;;;5054730;28;20135;-81
2021/04/13 11:33:56;;;;;;;4.00;0.30;;;17.10;38.30;;;;;;5005212;28;20040;-81
2021/04/13 11:36:54;;;;;;;1.55;0.30;;;16.80;38.10;;;;;;5025988;28;20041;-81
2021/04/13 11:39:31;;;;;;;1.95;0.30;;;16.60;39.60;;;;;;5030535;28;20057;-82
2021/04/13 11:42:17;;;;;;;2.90;0.50;;;17.20;38.10;;;;;;5041730;28;20040;-82
2021/04/13 11:45:05;;;;;;;5.38;0.47;;;17.90;37.70;;;;;;5028228;28;20047;-82
2021/04/13 11:47:46;;;;;;;4.07;0.30;;;17.70;35.30;;;;;;5038993;28;20045;-81
2021/04/13 11:50:36;;;;;;;2.33;0.38;;;16.70;37.10;;;;;;5026194;28;20058;-81
2021/04/13 11:53:11;;;;;;;2.78;0.55;;;15.70;37.60;;;;;;5005617;28;20041;-82
2021/04/13 11:55:45;;;;;;;4.13;0.60;;;15.40;39.00;;;;;;5026299;28;20040;-81
2021/04/13 11:58:27;;;;;;;2.20;0.30;;;16.00;40.10;;;;;;5057950;28;20041;-82
2021/04/13 12:01:14;;;;;;;1.17;0.28;;;17.10;38.90;;;;;;5044177;28;20056;-82
2021/04/13 12:04:01;;;;;;;1.90;0.20;;;17.90;34.70;;;;;;4989912;28;20049;-82
2021/04/13 12:07:00;;;;;;;2.08;0.30;;;18.00;34.00;;;;;;5006990;28;20029;-82
2021/04/13 12:10:06;;;;;;;1.42;0.30;;;17.80;35.40;;;;;;5023973;28;20051;-82
2021/04/13 12:12:33;;;;;;;1.92;0.43;;;18.40;35.10;;;;;;5032947;28;20059;-82
2021/04/13 12:15:08;;;;;;;1.42;0.30;;;18.90;33.20;;;;;;5063324;28;20036;-81
2021/04/13 12:18:01;;;;;;;0.82;0.28;;;19.30;32.00;;;;;;5042774;28;20032;-81
2021/04/13 12:20:32;;;;;;;2.45;0.60;;;18.70;31.00;;;;;;5073952;28;20036;-82
2021/04/13 12:23:04;;;;;;;2.03;0.30;;;17.90;31.40;;;;;;5064594;28;20390;-80
2021/04/13 12:25:49;;;;;;;2.13;0.20;;;17.40;31.80;;;;;;5061600;28;20787;-80
2021/04/13 12:28:37;;;;;;;1.75;0.30;;;16.50;32.90;;;;;;5063884;28;20055;-81
2021/04/13 12:31:14;;;;;;;3.47;0.40;;;15.60;34.30;;;;;;5052663;28;20040;-81
2021/04/13 12:34:05;;;;;;;1.38;0.30;;;14.90;35.50;;;;;;5050247;28;20067;-81
2021/04/13 12:36:57;;;;;;;1.80;0.20;;;14.40;37.00;;;;;;5065176;28;20055;-81
2021/04/13 12:39:49;;;;;;;3.85;0.38;;;14.00;37.60;;;;;;5076012;28;20051;-81
2021/04/13 12:42:41;;;;;;;1.60;0.30;;;13.70;38.40;;;;;;5077084;28;20066;-81
2021/04/13 12:45:22;;;;;;;1.75;0.30;;;13.70;39.20;;;;;;5047407;28;20035;-81
2021/04/13 12:48:17;;;;;;;2.65;0.30;;;14.90;38.80;;;;;;5064789;28;20028;-81
2021/04/13 12:50:50;;;;;;;2.17;0.30;;;15.50;38.50;;;;;;5083906;28;20378;-81
2021/04/13 12:53:23;;;;;;;2.65;0.25;;;15.50;36.70;;;;;;5066034;28;20043;-81
2021/04/13 12:56:26;;;;;;;1.55;0.20;;;15.20;37.30;;;;;;5044713;28;20394;-81
2021/04/13 12:58:52;;;;;;;2.20;0.23;;;14.70;37.50;;;;;;5050930;28;20032;-81
2021/04/13 13:01:33;;;;;;;3.85;0.30;;;14.10;37.60;;;;;;5050700;28;20043;-81
2021/04/13 13:04:07;;;;;;;1.00;0.22;;;13.70;38.40;;;;;;5067219;28;20039;-81
2021/04/13 13:06:35;;;;;;;2.60;0.65;;;13.30;37.20;;;;;;5038400;28;20147;-81
2021/04/13 13:09:06;;;;;;;1.88;0.40;;;12.90;38.40;;;;;;5061299;28;20047;-80
2021/04/13 13:11:33;;;;;;;2.05;0.30;;;12.80;39.50;;;;;;5063476;28;20064;-80
2021/04/13 13:14:03;;;;;;;2.30;0.20;;;13.50;40.00;;;;;;5010790;28;20068;-80
2021/04/13 13:16:30;;;;;;;1.55;0.30;;;15.00;38.70;;;;;;5031135;28;20039;-80
2021/04/13 13:18:57;;;;;;;1.90;0.25;;;16.60;37.00;;;;;;5013015;28;20056;-80
2021/04/13 13:21:46;;;;;;;2.10;0.30;;;17.50;33.80;;;;;;5025534;28;20041;-81
2021/04/13 13:24:34;;;;;;;2.90;0.40;;;17.40;33.70;;;;;;5009666;28;20037;-81
2021/04/13 13:27:15;;;;;;;1.50;0.22;;;17.70;33.40;;;;;;5028244;28;20036;-81
2021/04/13 13:29:42;;;;;;;1.63;0.30;;;18.40;32.30;;;;;;5036089;28;20044;-81
2021/04/13 13:32:13;;;;;;;1.90;0.22;;;18.70;30.90;;;;;;5010238;28;20066;-81
2021/04/13 13:34:40;;;;;;;0.70;0.20;;;18.60;31.20;;;;;;5042649;28;20479;-81
2021/04/13 13:37:11;;;;;;;0.70;0.20;;;18.80;32.10;;;;;;5000808;28;20040;-80
2021/04/13 13:39:38;;;;;;;1.00;0.20;;;18.40;31.00;;;;;;5012015;28;20041;-80
2021/04/13 13:42:10;;;;;;;2.08;0.30;;;17.60;31.20;;;;;;5024063;28;20047;-80
2021/04/13 13:44:41;;;;;;;2.65;0.30;;;16.70;31.50;;;;;;5024662;28;20043;-80
2021/04/13 13:47:21;;;;;;;4.18;0.40;;;15.90;33.40;;;;;;5026395;28;20029;-80
2021/04/13 13:49:59;;;;;;;4.13;0.50;;;15.30;34.70;;;;;;5000570;28;20120;-77
2021/04/13 13:52:50;;;;;;;3.65;0.40;;;15.60;35.30;;;;;;5044325;28;21452;-77
2021/04/13 13:55:17;;;;;;;2.33;0.43;;;15.80;34.90;;;;;;5035883;28;20043;-81
2021/04/13 13:58:05;;;;;;;4.60;0.50;;;15.60;36.00;;;;;;5038936;28;20044;-80
2021/04/13 14:00:41;;;;;;;1.92;0.20;;;15.80;36.20;;;;;;5060006;28;20162;-80
2021/04/13 14:03:08;;;;;;;3.13;0.50;;;16.80;36.20;;;;;;5026330;28;20044;-77
2021/04/13 14:05:40;;;;;;;1.23;0.30;;;18.10;33.50;;;;;;5060753;28;20051;-80